createdAt,value
2023-04-10T00:00:12.323Z,21.87
2023-04-10T00:05:13.842Z,23.07
2023-04-10T00:10:15.313Z,20.67
2023-04-10T00:15:16.756Z,22.00
2023-04-10T00:20:18.118Z,23.37
2023-04-10T00:25:19.635Z,22.90
2023-04-10T00:30:21.638Z,22.33
2023-04-10T00:35:23.044Z,23.93
2023-04-10T00:40:24.551Z,23.70
2023-04-10T00:45:26.418Z,22.43
2023-04-10T00:50:27.850Z,25.00
2023-04-10T00:55:29.276Z,24.13
2023-04-10T01:00:30.943Z,24.07
2023-04-10T01:05:35.313Z,21.50
2023-04-10T01:10:42.797Z,23.75
2023-04-10T01:15:48.014Z,23.23
2023-04-10T01:20:49.440Z,23.73
2023-04-10T01:25:56.529Z,24.57
2023-04-10T01:30:59.276Z,24.57
2023-04-10T01:36:03.052Z,23.83
2023-04-10T01:41:05.414Z,25.75
2023-04-10T01:46:07.282Z,23.63
2023-04-10T01:51:09.514Z,23.53
2023-04-10T01:56:10.983Z,24.97
2023-04-10T02:01:28.451Z,23.57
2023-04-10T02:06:34.404Z,24.37
2023-04-10T02:11:42.712Z,24.35
2023-04-10T02:16:44.599Z,24.13
2023-04-10T02:21:47.090Z,23.10
2023-04-10T02:26:49.452Z,23.03
2023-04-10T02:31:50.896Z,22.93
2023-04-10T02:36:52.611Z,24.13
2023-04-10T02:41:53.947Z,23.83
2023-04-10T02:46:55.702Z,24.17
2023-04-10T02:51:57.314Z,23.63
2023-04-10T02:56:58.703Z,24.80
2023-04-10T03:02:00.566Z,24.53
2023-04-10T03:07:02.049Z,24.27
2023-04-10T03:12:03.489Z,22.67
2023-04-10T03:17:04.893Z,24.10
2023-04-10T03:22:06.361Z,24.13
2023-04-10T03:27:07.768Z,22.30
2023-04-10T03:32:09.234Z,23.67
2023-04-10T03:37:10.654Z,22.67
2023-04-10T03:42:12.245Z,24.33
2023-04-10T03:47:13.683Z,22.83
2023-04-10T03:52:15.404Z,22.60
2023-04-10T03:57:18.700Z,22.37
2023-04-10T04:02:20.305Z,22.50
2023-04-10T04:07:21.729Z,23.97
2023-04-10T04:12:23.141Z,22.30
2023-04-10T04:17:24.558Z,21.67
2023-04-10T04:22:26.033Z,23.23
2023-04-10T04:27:27.476Z,23.13
2023-04-10T04:32:29.186Z,22.57
2023-04-10T04:37:30.648Z,21.33
2023-04-10T04:42:32.024Z,24.00
2023-04-10T04:47:33.500Z,21.90
2023-04-10T04:52:35.386Z,21.93
2023-04-10T04:57:36.816Z,22.63
2023-04-10T05:02:38.484Z,21.00
2023-04-10T05:07:40.508Z,23.07
2023-04-10T05:12:43.198Z,21.63
2023-04-10T05:17:44.712Z,21.53
2023-04-10T05:22:46.190Z,20.47
2023-04-10T05:27:47.542Z,20.63
2023-04-10T05:32:49.016Z,20.67
2023-04-10T05:37:50.404Z,21.47
2023-04-10T05:42:52.073Z,21.23
2023-04-10T05:47:53.527Z,20.87
2023-04-10T05:52:55.004Z,20.97
2023-04-10T05:57:56.515Z,19.30
2023-04-10T06:02:58.060Z,20.20
2023-04-10T06:07:59.518Z,20.70
2023-04-10T06:13:01.305Z,19.23
2023-04-10T06:18:02.929Z,19.67
2023-04-10T06:23:04.415Z,17.42
2023-04-10T06:28:05.953Z,18.80
2023-04-10T06:33:08.410Z,17.42
2023-04-10T06:38:09.871Z,18.13
2023-04-10T06:43:11.452Z,16.55
2023-04-10T06:48:13.084Z,18.95
2023-04-10T06:53:14.465Z,18.88
2023-04-10T06:58:16.420Z,31.15
2023-04-10T07:03:18.161Z,17.50
2023-04-10T07:08:19.624Z,17.48
2023-04-10T07:13:21.370Z,17.63
2023-04-10T07:18:22.767Z,18.00
2023-04-10T07:23:24.174Z,17.42
2023-04-10T07:28:25.988Z,16.63
2023-04-10T07:33:27.466Z,16.10
2023-04-10T07:38:29.148Z,15.70
2023-04-10T07:43:30.760Z,16.40
2023-04-10T07:48:32.180Z,16.48
2023-04-10T07:53:33.619Z,15.65
2023-04-10T07:58:35.997Z,15.40
2023-04-10T08:03:38.343Z,15.40
2023-04-10T08:08:40.434Z,15.10
2023-04-10T08:13:41.889Z,14.88
2023-04-10T08:18:43.320Z,13.60
2023-04-10T08:23:46.354Z,14.90
2023-04-10T08:28:51.995Z,14.57
2023-04-10T08:33:53.734Z,14.63
2023-04-10T08:38:55.469Z,13.07
2023-04-10T08:43:57.570Z,13.55
2023-04-10T08:49:02.057Z,12.50
2023-04-10T08:54:06.454Z,12.77
2023-04-10T09:04:11.727Z,12.27
2023-04-10T09:09:13.346Z,15.55
2023-04-10T09:14:22.090Z,11.70
2023-04-10T09:19:33.309Z,11.80
2023-04-10T09:24:42.379Z,11.05
2023-04-10T09:29:45.311Z,11.45
2023-04-10T09:34:58.515Z,10.15
2023-04-10T09:40:00.154Z,9.53
2023-04-10T09:45:01.905Z,9.27
2023-04-10T09:50:03.430Z,9.43
2023-04-10T09:55:06.022Z,10.10
2023-04-10T10:00:09.424Z,9.63
2023-04-10T10:05:11.118Z,13.73
2023-04-10T10:10:12.854Z,10.45
2023-04-10T10:15:18.112Z,10.23
2023-04-10T10:20:22.247Z,8.57
2023-04-10T10:25:23.907Z,7.70
2023-04-10T10:30:30.004Z,8.15
2023-04-10T10:35:32.664Z,8.02
2023-04-10T10:40:36.841Z,7.63
2023-04-10T10:45:42.761Z,8.63
2023-04-10T10:50:58.746Z,7.95
2023-04-10T10:56:19.629Z,7.57
2023-04-10T11:01:22.253Z,8.05
2023-04-10T11:06:44.686Z,7.45
2023-04-10T11:12:12.449Z,7.15
2023-04-10T11:17:26.817Z,7.45
2023-04-10T11:22:28.768Z,7.00
2023-04-10T11:27:48.457Z,6.90
2023-04-10T11:32:50.938Z,5.95
2023-04-10T11:37:52.972Z,6.22
2023-04-10T11:43:11.330Z,5.88
2023-04-10T11:48:12.748Z,6.70
2023-04-10T11:53:17.916Z,6.43
2023-04-10T11:58:26.661Z,6.78
2023-04-10T12:03:32.000Z,6.78
2023-04-10T12:08:34.130Z,6.78
2023-04-10T12:13:36.256Z,7.07
2023-04-10T12:18:37.788Z,7.32
2023-04-10T12:23:39.576Z,7.45
2023-04-10T12:28:41.966Z,6.38
2023-04-10T12:33:46.785Z,6.85
2023-04-10T12:38:48.227Z,6.55
2023-04-10T12:43:49.922Z,6.15
2023-04-10T12:48:51.330Z,6.57
2023-04-10T12:53:52.726Z,6.30
2023-04-10T12:59:06.416Z,6.43
2023-04-10T13:04:07.952Z,5.88
2023-04-10T13:09:09.487Z,5.20
2023-04-10T13:14:11.185Z,5.30
2023-04-10T13:19:12.947Z,5.68
2023-04-10T13:24:16.625Z,5.85
2023-04-10T13:29:18.394Z,5.93
2023-04-10T13:34:19.778Z,5.38
2023-04-10T13:39:21.416Z,5.25
2023-04-10T13:44:22.815Z,5.40
2023-04-10T13:49:24.277Z,5.78
2023-04-10T13:54:26.435Z,5.68
2023-04-10T13:59:27.807Z,5.50
2023-04-10T14:04:29.213Z,5.78
2023-04-10T14:09:30.671Z,5.15
2023-04-10T14:14:32.178Z,5.30
2023-04-10T14:19:34.108Z,4.70
2023-04-10T14:24:35.468Z,4.82
2023-04-10T14:29:42.582Z,4.53
2023-04-10T14:34:48.999Z,4.45
2023-04-10T14:39:50.518Z,4.10
2023-04-10T14:44:51.922Z,4.45
2023-04-10T14:49:53.352Z,4.43
2023-04-10T14:54:54.823Z,4.40
2023-04-10T14:59:56.465Z,3.85
2023-04-10T15:04:57.928Z,4.40
2023-04-10T15:09:59.682Z,3.47
2023-04-10T15:15:01.311Z,3.67
2023-04-10T15:20:04.925Z,3.83
2023-04-10T15:25:06.451Z,3.90
2023-04-10T15:30:08.011Z,3.58
2023-04-10T15:35:09.573Z,3.75
2023-04-10T15:40:11.367Z,3.85
2023-04-10T15:45:12.766Z,4.20
2023-04-10T15:50:14.244Z,4.30
2023-04-10T15:55:16.225Z,4.53
2023-04-10T16:00:17.819Z,4.63
2023-04-10T16:05:19.208Z,4.72
2023-04-10T16:10:21.170Z,4.45
2023-04-10T16:15:22.633Z,4.72
2023-04-10T16:20:24.151Z,5.45
2023-04-10T16:25:28.689Z,5.35
2023-04-10T16:30:30.324Z,5.15
2023-04-10T16:35:31.958Z,5.45
2023-04-10T16:40:33.475Z,6.88
2023-04-10T16:45:34.911Z,5.63
2023-04-10T16:50:36.410Z,6.75
2023-04-10T16:55:37.798Z,5.38
2023-04-10T17:00:39.246Z,5.20
2023-04-10T17:05:40.706Z,6.15
2023-04-10T17:10:42.138Z,5.43
2023-04-10T17:15:43.562Z,5.97
2023-04-10T17:20:47.755Z,6.05
2023-04-10T17:25:49.645Z,6.03
2023-04-10T17:30:51.118Z,5.95
2023-04-10T17:35:52.652Z,5.32
2023-04-10T17:40:54.199Z,4.88
2023-04-10T17:45:55.591Z,4.88
2023-04-10T17:50:57.833Z,4.18
2023-04-10T17:55:59.223Z,6.50
2023-04-10T18:01:00.607Z,6.53
2023-04-10T18:06:01.996Z,5.55
2023-04-10T18:11:03.522Z,5.40
2023-04-10T18:16:05.196Z,6.10
2023-04-10T18:21:07.139Z,5.95
2023-04-10T18:26:08.607Z,5.90
2023-04-10T18:31:10.162Z,6.32
2023-04-10T18:36:13.839Z,5.90
2023-04-10T18:41:15.451Z,6.40
2023-04-10T18:46:16.905Z,6.55
2023-04-10T18:51:20.390Z,6.00
2023-04-10T18:56:21.894Z,6.37
2023-04-10T19:01:23.398Z,6.03
2023-04-10T19:06:25.459Z,6.22
2023-04-10T19:11:26.953Z,5.82
2023-04-10T19:16:28.460Z,6.00
2023-04-10T19:21:29.888Z,5.95
2023-04-10T19:26:31.338Z,6.18
2023-04-10T19:31:32.799Z,6.43
2023-04-10T19:36:34.463Z,5.85
2023-04-10T19:41:37.222Z,5.03
2023-04-10T19:46:39.133Z,6.10
2023-04-10T19:51:41.058Z,6.57
2023-04-10T19:56:42.546Z,6.85
2023-04-10T20:01:44.063Z,7.15
2023-04-10T20:06:45.723Z,7.13
2023-04-10T20:11:47.181Z,6.80
2023-04-10T20:16:48.583Z,6.55
2023-04-10T20:21:50.059Z,6.97
2023-04-10T20:26:51.424Z,6.70
2023-04-10T20:31:52.873Z,6.80
2023-04-10T20:36:54.529Z,6.40
2023-04-10T20:41:57.009Z,6.55
2023-04-10T20:46:58.503Z,4.88
2023-04-10T20:51:59.950Z,4.75
2023-04-10T20:57:01.846Z,4.82
2023-04-10T21:02:03.552Z,5.13
2023-04-10T21:07:05.010Z,5.68
2023-04-10T21:12:06.490Z,5.10
2023-04-10T21:17:07.977Z,5.60
2023-04-10T21:22:10.278Z,5.72
2023-04-10T21:27:11.998Z,5.85
2023-04-10T21:32:13.523Z,6.70
2023-04-10T21:37:15.150Z,4.88
2023-04-10T21:42:18.413Z,5.10
2023-04-10T21:47:19.863Z,4.80
2023-04-10T21:52:21.217Z,3.92
2023-04-10T21:57:22.580Z,4.05
2023-04-10T22:02:24.030Z,3.42
2023-04-10T22:07:25.486Z,3.85
2023-04-10T22:12:26.874Z,5.05
2023-04-10T22:17:28.352Z,3.95
2023-04-10T22:22:29.855Z,4.80
2023-04-10T22:27:32.316Z,4.85
2023-04-10T22:32:33.815Z,5.80
2023-04-10T22:37:35.274Z,6.40
2023-04-10T22:42:36.630Z,6.65
2023-04-10T22:47:38.027Z,5.95
2023-04-10T22:52:39.480Z,5.57
2023-04-10T22:57:40.930Z,5.97
2023-04-10T23:02:42.470Z,5.15
2023-04-10T23:07:43.972Z,4.80
2023-04-10T23:12:45.580Z,4.43
2023-04-10T23:17:47.027Z,4.13
2023-04-10T23:22:48.448Z,3.58
2023-04-10T23:27:49.937Z,3.63
2023-04-10T23:32:51.344Z,3.85
2023-04-10T23:37:53.066Z,3.70
2023-04-10T23:42:54.452Z,3.45
2023-04-10T23:47:55.905Z,3.92
2023-04-10T23:52:59.332Z,3.72
2023-04-10T23:58:00.922Z,3.72
